Terminal Aerodrome Forecast
Issued by NWS Cleveland, OH

Home | Current Version | Previous Version | Text Only | Print | Product List | Glossary Off
Versions: 1 2 3 4 5 6 7 8 9 10 11 12 13 14 15 16 17 18 19 20 21 22

000
FTUS41 KCLE 291100
TAFCAK
TAF
KCAK 291139Z 2912/3012 00000KT 4SM BR SCT200
     FM291400 28005KT P6SM SKC
     FM300000 VRB03KT P6SM SCT200
     FM301100 27005KT P6SM VCSH BKN040 OVC100=

USA.gov is the U.S. government's official web portal to all federal, state and local government web resources and services.